Aérodrome :
LOGIN :

S'inscrire | Disclaimer

   EN    FR    IT 

 










Légende :    VFR   VFR Marginal   IFR   IFR Intensif   IFR Très Intensif
Visi : 
Plafond : 
>= 8 km
>= 3000ft
5 à 8 km
1000 à 3000 ft
1500m à 5 km
500 à 1000 ft
800 à 1500m
200 à 500 ft
< 800m
< 200 ft
Symboles :   Orages  Brouillard  Fortes neiges  Fortes précipitations  Vent > 20 kt
SIGMETs :   Divers  Orages  Givrage  Turbulence  Onde Orograph.  Cendres Volcan.







- Altitude de l'aérodrome : 138 ft
- Code IATA : BIO


LEBB - Bilbao

DERNIER METAR :
  • 181200Z VRB02KT 9999 -RA FEW036 BKN048 08/05 Q1020 TEMPO RA

METARs EXPIRÉS :
  • 181130Z VRB02KT 9999 -RA BKN038 OVC046 08/06 Q1020 TEMPO RA
  • 181100Z 11003KT 060V210 9999 -RA FEW032 BKN046 07/06 Q1020 TEMPO RA
  • 181030Z 11004KT 080V150 9999 -RA FEW032 BKN050 07/06 Q1020 TEMPO RA
  • 181000Z 10004KT 9999 -RA SCT032 BKN044 07/06 Q1020 TEMPO RA
  • 180930Z VRB02KT 9999 -DZ SCT035 BKN057 06/05 Q1020 TEMPO RA

TAF TAF LEBB
Valide du 18 à 12h jusqu'au 19 à 12h UTC


181100Z 1812/1912 12005KT 9999 SCT040 TX11/1814Z TN06/1906Z
PROB30
TEMPO 1812/1818 30010KT
PROB30
TEMPO 1818/1903 RA SHRA BKN010 SCT030TCU
Pas de NOTAMs connus pour ce terrain.



MET'MAP, la Météo Aéronautique d'un coup d'oeil ! - Copyright ORBIFLY Décembre 2007 - Disclaimer

ORBIFLY MET'MAP TEAM :

Programmation & Développement : Alexandra Zaïnal
Conception & Développement : Baudouin d'Aumeries
Co-Programmation & Développement : Marc-Olivier Méhu
Soutien technique & logistique : Manuel Goepfert

Contact : metmap@orbifly.com




SOURCES & CREDITS :

   NOAA